Home   Weather   North Macedonia   Skopje   Past weeks
Flag for North Macedonia

Past Weather in Skopje, North Macedonia — Yesterday and Last 2 Weeks

Currently: 59 °F. Sunny. (Weather station: Skopje-Petrovec, North Macedonia). See more current weather

Past Weather in Skopje — Graph

°F

Skopje Temperature Yesterday

Maximum temperature yesterday: 55 °F (at 4:00 pm)
Minimum temperature yesterday: 21 °F (at 6:00 am)
Average temperature yesterday: 39 °F

High & Low Weather Summary for the Past Weeks

 TemperatureHumidityPressure
High73 °F (Apr 3, 3:00 pm)100% (Mar 29, 7:00 am)30.51 "Hg (Mar 29, 7:00 am)
Low21 °F (Apr 9, 6:00 am)18% (Mar 27, 4:30 pm)29.50 "Hg (Apr 6, 4:00 pm)
Average47 °F61%30.13 "Hg
* Reported Mar 26 11:00 am — Apr 10 12:00 pm, Skopje. Weather by CustomWeather, © 2021

Note: Actual official high and low records may vary slightly from our data, if they occured in-between our weather recording intervals... More about our weather records

Skopje Weather History for the Previous 24 Hours

Scroll right to see more
 ConditionsComfort  
Time TempWeatherWind HumidityBarometerVisibility
12:00 pm
Sat, Apr 10
55 °FSunny.1 mph36%30.30 "Hg10 mi
11:00 am52 °FSunny.2 mph38%30.30 "Hg10 mi
10:30 am48 °FSunny.1 mph46%30.33 "Hg10 mi
10:00 am46 °FSunny.1 mph46%30.33 "Hg10 mi
9:30 am41 °FSunny.1 mph61%30.33 "Hg10 mi
9:00 am39 °FSunny.1 mph61%30.36 "Hg10 mi
8:30 am36 °FSunny.1 mph70%30.36 "Hg10 mi
8:00 am32 °FSunny.1 mph75%30.36 "Hg10 mi
7:30 am30 °FSunny.No wind75%30.33 "Hg10 mi
7:00 am28 °FSunny.No wind74%30.33 "Hg10 mi
6:30 am25 °FSunny.No wind86%30.33 "Hg10 mi
6:00 am28 °FClear.2 mph74%30.33 "Hg10 mi
5:00 am28 °FClear.No wind74%30.33 "Hg10 mi
4:30 am30 °FClear.No wind69%30.33 "Hg10 mi
4:00 am28 °FClear.No wind80%30.33 "Hg10 mi
3:30 am28 °FClear.No wind74%30.33 "Hg10 mi
3:00 am27 °FClear.No wind80%30.33 "Hg10 mi
2:30 am28 °FClear.No wind80%30.33 "Hg10 mi
2:00 am30 °FClear.No wind75%30.33 "Hg10 mi
1:30 am30 °FClear.No wind80%30.33 "Hg10 mi
1:00 am32 °FClear.2 mph69%30.33 "Hg10 mi
12:30 am32 °FClear.2 mph69%30.33 "Hg10 mi
12:00 am32 °FClear.No wind69%30.33 "Hg10 mi
11:30 pm
Fri, Apr 9
34 °FClear.1 mph65%30.33 "Hg10 mi
11:00 pm34 °FClear.2 mph65%30.33 "Hg10 mi
10:30 pm34 °FClear.2 mph70%30.33 "Hg10 mi
10:00 pm37 °FClear.No wind60%30.33 "Hg10 mi
9:30 pm37 °FClear.3 mph60%30.33 "Hg10 mi
9:00 pm41 °FClear.2 mph53%30.33 "Hg10 mi
8:30 pm39 °FClear.No wind56%30.33 "Hg10 mi
8:00 pm43 °FClear.3 mph49%30.33 "Hg10 mi
7:30 pm46 °FClear.5 mph43%30.33 "Hg10 mi
7:00 pm52 °FSunny.2 mph30%30.33 "Hg10 mi
6:30 pm55 °FSunny.No wind24%30.33 "Hg10 mi
6:00 pm55 °FSunny.3 mph26%30.33 "Hg10 mi
5:30 pm55 °FSunny.5 mph26%30.33 "Hg10 mi
5:00 pm55 °FSunny.3 mph26%30.33 "Hg10 mi
4:30 pm55 °FSunny.3 mph26%30.33 "Hg10 mi
4:00 pm55 °FSunny.3 mph26%30.33 "Hg10 mi
3:30 pm54 °FPassing clouds.3 mph28%30.33 "HgN/A
3:00 pm54 °FPassing clouds.5 mph30%30.36 "HgN/A
2:30 pm54 °FPassing clouds.5 mph30%30.36 "HgN/A
2:00 pm54 °FPassing clouds.5 mph30%30.36 "HgN/A
1:30 pm52 °FPassing clouds.2 mph30%30.39 "HgN/A
1:00 pm50 °FPassing clouds.3 mph35%30.39 "HgN/A
Weather by CustomWeather, © 2021

See weather overview